sensor_id;sensor_type;location;lat;lon;timestamp;temperature;humidity
31735;DHT22;18313;48.518;9.124;2022-11-20T00:02:10;5.40;99.90
31735;DHT22;18313;48.518;9.124;2022-11-20T00:04:55;5.30;99.90
31735;DHT22;18313;48.518;9.124;2022-11-20T00:07:41;5.20;99.90
31735;DHT22;18313;48.518;9.124;2022-11-20T00:10:27;5.20;99.90
31735;DHT22;18313;48.518;9.124;2022-11-20T00:13:12;5.30;99.90
31735;DHT22;18313;48.518;9.124;2022-11-20T00:15:59;5.20;99.90
31735;DHT22;18313;48.518;9.124;2022-11-20T00:18:45;5.30;99.90
31735;DHT22;18313;48.518;9.124;2022-11-20T00:21:30;5.20;99.90
31735;DHT22;18313;48.518;9.124;2022-11-20T00:24:16;5.10;99.90
31735;DHT22;18313;48.518;9.124;2022-11-20T00:27:02;5.20;99.90
31735;DHT22;18313;48.518;9.124;2022-11-20T00:29:47;5.20;99.90
31735;DHT22;18313;48.518;9.124;2022-11-20T00:32:33;5.10;99.90
31735;DHT22;18313;48.518;9.124;2022-11-20T00:35:18;5.10;99.90
31735;DHT22;18313;48.518;9.124;2022-11-20T00:38:04;5.10;99.90
31735;DHT22;18313;48.518;9.124;2022-11-20T00:40:56;5.10;99.90
31735;DHT22;18313;48.518;9.124;2022-11-20T00:43:41;5.10;99.90
31735;DHT22;18313;48.518;9.124;2022-11-20T00:46:28;5.10;99.90
31735;DHT22;18313;48.518;9.124;2022-11-20T00:49:13;5.00;99.90
31735;DHT22;18313;48.518;9.124;2022-11-20T00:51:59;5.00;99.90
31735;DHT22;18313;48.518;9.124;2022-11-20T00:54:44;5.00;99.90
31735;DHT22;18313;48.518;9.124;2022-11-20T00:57:30;4.90;99.90
31735;DHT22;18313;48.518;9.124;2022-11-20T01:00:15;5.00;99.90
31735;DHT22;18313;48.518;9.124;2022-11-20T01:03:01;4.90;99.90
31735;DHT22;18313;48.518;9.124;2022-11-20T01:05:47;4.80;99.90
31735;DHT22;18313;48.518;9.124;2022-11-20T01:08:34;4.70;99.90
31735;DHT22;18313;48.518;9.124;2022-11-20T01:11:30;4.70;99.90
31735;DHT22;18313;48.518;9.124;2022-11-20T01:14:18;4.70;99.90
31735;DHT22;18313;48.518;9.124;2022-11-20T01:17:04;4.70;99.90
31735;DHT22;18313;48.518;9.124;2022-11-20T01:19:50;4.70;99.90
31735;DHT22;18313;48.518;9.124;2022-11-20T01:22:36;4.70;99.90
31735;DHT22;18313;48.518;9.124;2022-11-20T01:25:22;4.70;99.90
31735;DHT22;18313;48.518;9.124;2022-11-20T01:28:07;4.70;99.90
31735;DHT22;18313;48.518;9.124;2022-11-20T01:30:53;4.80;99.90
31735;DHT22;18313;48.518;9.124;2022-11-20T01:33:39;4.70;99.90
31735;DHT22;18313;48.518;9.124;2022-11-20T01:36:28;4.60;99.90
31735;DHT22;18313;48.518;9.124;2022-11-20T01:39:20;4.60;99.90
31735;DHT22;18313;48.518;9.124;2022-11-20T01:42:07;4.70;99.90
31735;DHT22;18313;48.518;9.124;2022-11-20T01:51:34;4.60;99.90
31735;DHT22;18313;48.518;9.124;2022-11-20T01:54:32;4.60;99.90
31735;DHT22;18313;48.518;9.124;2022-11-20T01:57:21;4.60;99.90
31735;DHT22;18313;48.518;9.124;2022-11-20T02:00:10;4.50;99.90
31735;DHT22;18313;48.518;9.124;2022-11-20T02:03:14;4.60;99.90
31735;DHT22;18313;48.518;9.124;2022-11-20T02:06:20;4.60;99.90
31735;DHT22;18313;48.518;9.124;2022-11-20T02:09:08;4.50;99.90
31735;DHT22;18313;48.518;9.124;2022-11-20T02:11:53;4.60;99.90
31735;DHT22;18313;48.518;9.124;2022-11-20T02:14:40;4.70;99.90
31735;DHT22;18313;48.518;9.124;2022-11-20T02:17:25;4.60;99.90
31735;DHT22;18313;48.518;9.124;2022-11-20T02:20:11;4.70;99.90
31735;DHT22;18313;48.518;9.124;2022-11-20T02:23:11;4.70;99.90
31735;DHT22;18313;48.518;9.124;2022-11-20T02:25:58;4.80;99.90
31735;DHT22;18313;48.518;9.124;2022-11-20T02:28:46;4.90;99.90
31735;DHT22;18313;48.518;9.124;2022-11-20T02:31:41;5.00;99.90
31735;DHT22;18313;48.518;9.124;2022-11-20T02:34:27;5.00;99.90
31735;DHT22;18313;48.518;9.124;2022-11-20T02:37:14;5.00;99.90
31735;DHT22;18313;48.518;9.124;2022-11-20T02:40:00;5.10;99.90
31735;DHT22;18313;48.518;9.124;2022-11-20T02:42:46;5.10;99.90
31735;DHT22;18313;48.518;9.124;2022-11-20T02:45:31;5.20;99.90
31735;DHT22;18313;48.518;9.124;2022-11-20T02:48:17;5.20;99.90
31735;DHT22;18313;48.518;9.124;2022-11-20T02:51:03;5.20;99.90
31735;DHT22;18313;48.518;9.124;2022-11-20T02:53:48;5.20;99.90
31735;DHT22;18313;48.518;9.124;2022-11-20T02:56:34;5.20;99.90
31735;DHT22;18313;48.518;9.124;2022-11-20T02:59:19;5.20;99.90
31735;DHT22;18313;48.518;9.124;2022-11-20T03:02:05;5.20;99.90
31735;DHT22;18313;48.518;9.124;2022-11-20T03:04:51;5.20;99.90
31735;DHT22;18313;48.518;9.124;2022-11-20T03:07:36;5.30;99.90
31735;DHT22;18313;48.518;9.124;2022-11-20T03:10:22;5.20;99.90
31735;DHT22;18313;48.518;9.124;2022-11-20T03:13:07;5.20;99.90
31735;DHT22;18313;48.518;9.124;2022-11-20T03:15:53;5.20;99.90
31735;DHT22;18313;48.518;9.124;2022-11-20T03:18:40;5.20;99.90
31735;DHT22;18313;48.518;9.124;2022-11-20T03:21:25;5.10;99.90
31735;DHT22;18313;48.518;9.124;2022-11-20T03:24:11;5.20;99.90
31735;DHT22;18313;48.518;9.124;2022-11-20T03:26:57;5.30;99.90
31735;DHT22;18313;48.518;9.124;2022-11-20T03:29:42;5.30;99.90
31735;DHT22;18313;48.518;9.124;2022-11-20T03:32:27;5.30;99.90
31735;DHT22;18313;48.518;9.124;2022-11-20T03:35:13;5.30;99.90
31735;DHT22;18313;48.518;9.124;2022-11-20T03:37:58;5.30;99.90
31735;DHT22;18313;48.518;9.124;2022-11-20T03:40:44;5.40;99.90
31735;DHT22;18313;48.518;9.124;2022-11-20T03:43:29;5.40;99.90
31735;DHT22;18313;48.518;9.124;2022-11-20T03:46:15;5.40;99.90
31735;DHT22;18313;48.518;9.124;2022-11-20T03:49:01;5.50;99.90
31735;DHT22;18313;48.518;9.124;2022-11-20T03:51:47;5.50;99.90
31735;DHT22;18313;48.518;9.124;2022-11-20T03:54:32;5.60;99.90
31735;DHT22;18313;48.518;9.124;2022-11-20T03:57:18;5.60;99.90
31735;DHT22;18313;48.518;9.124;2022-11-20T04:00:04;5.60;99.90
31735;DHT22;18313;48.518;9.124;2022-11-20T04:02:50;5.70;99.90
31735;DHT22;18313;48.518;9.124;2022-11-20T04:05:36;5.70;99.90
31735;DHT22;18313;48.518;9.124;2022-11-20T04:08:21;5.70;99.90
31735;DHT22;18313;48.518;9.124;2022-11-20T04:11:15;5.80;99.90
31735;DHT22;18313;48.518;9.124;2022-11-20T04:14:03;5.70;99.90
31735;DHT22;18313;48.518;9.124;2022-11-20T04:16:49;5.80;99.90
31735;DHT22;18313;48.518;9.124;2022-11-20T04:19:35;5.70;99.90
31735;DHT22;18313;48.518;9.124;2022-11-20T04:22:21;5.70;99.90
31735;DHT22;18313;48.518;9.124;2022-11-20T04:25:07;5.80;99.90
31735;DHT22;18313;48.518;9.124;2022-11-20T04:27:53;5.80;99.90
31735;DHT22;18313;48.518;9.124;2022-11-20T04:30:38;5.90;99.90
31735;DHT22;18313;48.518;9.124;2022-11-20T04:33:24;5.80;99.90
31735;DHT22;18313;48.518;9.124;2022-11-20T04:36:15;5.90;99.90
31735;DHT22;18313;48.518;9.124;2022-11-20T04:39:05;6.00;99.90
31735;DHT22;18313;48.518;9.124;2022-11-20T04:41:51;6.00;99.90
31735;DHT22;18313;48.518;9.124;2022-11-20T04:44:57;6.00;99.90
31735;DHT22;18313;48.518;9.124;2022-11-20T04:47:43;6.00;99.90
31735;DHT22;18313;48.518;9.124;2022-11-20T04:50:28;5.90;99.90
31735;DHT22;18313;48.518;9.124;2022-11-20T04:53:14;6.00;99.90
31735;DHT22;18313;48.518;9.124;2022-11-20T04:56:05;6.00;99.90
31735;DHT22;18313;48.518;9.124;2022-11-20T04:58:51;6.00;99.90
31735;DHT22;18313;48.518;9.124;2022-11-20T05:01:37;6.00;99.90
31735;DHT22;18313;48.518;9.124;2022-11-20T05:04:22;6.00;99.90
31735;DHT22;18313;48.518;9.124;2022-11-20T05:07:08;6.00;99.90
31735;DHT22;18313;48.518;9.124;2022-11-20T05:09:54;6.00;99.90
31735;DHT22;18313;48.518;9.124;2022-11-20T05:12:39;6.00;99.90
31735;DHT22;18313;48.518;9.124;2022-11-20T05:15:25;6.00;99.90
31735;DHT22;18313;48.518;9.124;2022-11-20T05:18:11;5.90;99.90
31735;DHT22;18313;48.518;9.124;2022-11-20T05:20:57;6.00;99.90
31735;DHT22;18313;48.518;9.124;2022-11-20T05:23:44;5.90;99.90
31735;DHT22;18313;48.518;9.124;2022-11-20T05:26:30;6.00;99.90
31735;DHT22;18313;48.518;9.124;2022-11-20T05:29:15;5.90;99.90
31735;DHT22;18313;48.518;9.124;2022-11-20T05:32:01;5.90;99.90
31735;DHT22;18313;48.518;9.124;2022-11-20T05:34:46;5.90;99.90
31735;DHT22;18313;48.518;9.124;2022-11-20T05:37:32;5.90;99.90
31735;DHT22;18313;48.518;9.124;2022-11-20T05:40:17;5.80;99.90
31735;DHT22;18313;48.518;9.124;2022-11-20T05:43:03;5.90;99.90
31735;DHT22;18313;48.518;9.124;2022-11-20T05:45:54;5.80;99.90
31735;DHT22;18313;48.518;9.124;2022-11-20T05:48:41;5.80;99.90
31735;DHT22;18313;48.518;9.124;2022-11-20T05:51:27;5.80;99.90
31735;DHT22;18313;48.518;9.124;2022-11-20T05:54:12;5.70;99.90
31735;DHT22;18313;48.518;9.124;2022-11-20T05:56:58;5.70;99.90
31735;DHT22;18313;48.518;9.124;2022-11-20T05:59:43;5.80;99.90
31735;DHT22;18313;48.518;9.124;2022-11-20T06:02:29;5.70;99.90
31735;DHT22;18313;48.518;9.124;2022-11-20T06:05:14;5.80;99.90
31735;DHT22;18313;48.518;9.124;2022-11-20T06:08:00;5.70;99.90
31735;DHT22;18313;48.518;9.124;2022-11-20T06:10:46;5.70;99.90
31735;DHT22;18313;48.518;9.124;2022-11-20T06:13:32;5.60;99.90
31735;DHT22;18313;48.518;9.124;2022-11-20T06:16:21;5.70;99.90
31735;DHT22;18313;48.518;9.124;2022-11-20T06:19:07;5.70;99.90
31735;DHT22;18313;48.518;9.124;2022-11-20T06:21:52;5.70;99.90
31735;DHT22;18313;48.518;9.124;2022-11-20T06:24:38;5.70;99.90
31735;DHT22;18313;48.518;9.124;2022-11-20T06:27:23;5.70;99.90
31735;DHT22;18313;48.518;9.124;2022-11-20T06:30:09;5.70;99.90
31735;DHT22;18313;48.518;9.124;2022-11-20T06:32:55;5.70;99.90
31735;DHT22;18313;48.518;9.124;2022-11-20T06:35:41;5.70;99.90
31735;DHT22;18313;48.518;9.124;2022-11-20T06:38:27;5.70;99.90
31735;DHT22;18313;48.518;9.124;2022-11-20T06:41:18;5.70;99.90
31735;DHT22;18313;48.518;9.124;2022-11-20T06:44:04;5.70;99.90
31735;DHT22;18313;48.518;9.124;2022-11-20T06:46:50;5.70;99.90
31735;DHT22;18313;48.518;9.124;2022-11-20T06:49:36;5.70;99.90
31735;DHT22;18313;48.518;9.124;2022-11-20T06:52:23;5.70;99.90
31735;DHT22;18313;48.518;9.124;2022-11-20T06:55:09;5.70;99.90
31735;DHT22;18313;48.518;9.124;2022-11-20T06:57:55;5.70;99.90
31735;DHT22;18313;48.518;9.124;2022-11-20T07:00:41;5.70;99.90
31735;DHT22;18313;48.518;9.124;2022-11-20T07:03:26;5.70;99.90
31735;DHT22;18313;48.518;9.124;2022-11-20T07:06:11;5.70;99.90
31735;DHT22;18313;48.518;9.124;2022-11-20T07:08:57;5.60;99.90
31735;DHT22;18313;48.518;9.124;2022-11-20T07:11:43;5.50;99.90
31735;DHT22;18313;48.518;9.124;2022-11-20T07:14:28;5.50;99.90
31735;DHT22;18313;48.518;9.124;2022-11-20T07:17:14;5.60;99.90
31735;DHT22;18313;48.518;9.124;2022-11-20T07:19:59;5.50;99.90
31735;DHT22;18313;48.518;9.124;2022-11-20T07:22:45;5.50;99.90
31735;DHT22;18313;48.518;9.124;2022-11-20T07:25:33;5.60;99.90
31735;DHT22;18313;48.518;9.124;2022-11-20T07:28:20;5.70;99.90
31735;DHT22;18313;48.518;9.124;2022-11-20T07:31:06;5.70;99.90
31735;DHT22;18313;48.518;9.124;2022-11-20T07:33:52;5.80;99.90
31735;DHT22;18313;48.518;9.124;2022-11-20T07:36:38;5.80;99.90
31735;DHT22;18313;48.518;9.124;2022-11-20T07:39:24;5.80;99.90
31735;DHT22;18313;48.518;9.124;2022-11-20T07:42:10;5.80;99.90
31735;DHT22;18313;48.518;9.124;2022-11-20T07:44:58;5.90;99.90
31735;DHT22;18313;48.518;9.124;2022-11-20T07:47:44;5.90;99.90
31735;DHT22;18313;48.518;9.124;2022-11-20T07:50:30;5.90;99.90
31735;DHT22;18313;48.518;9.124;2022-11-20T07:53:16;5.90;99.90
31735;DHT22;18313;48.518;9.124;2022-11-20T07:56:06;6.00;99.90
31735;DHT22;18313;48.518;9.124;2022-11-20T07:58:51;6.10;99.90
31735;DHT22;18313;48.518;9.124;2022-11-20T08:01:38;6.10;99.90
31735;DHT22;18313;48.518;9.124;2022-11-20T08:04:24;6.20;99.90
31735;DHT22;18313;48.518;9.124;2022-11-20T08:07:09;6.20;99.90
31735;DHT22;18313;48.518;9.124;2022-11-20T08:09:55;6.30;99.90
31735;DHT22;18313;48.518;9.124;2022-11-20T08:12:49;6.30;99.90
31735;DHT22;18313;48.518;9.124;2022-11-20T08:15:53;6.30;99.90
31735;DHT22;18313;48.518;9.124;2022-11-20T08:18:38;6.30;99.90
31735;DHT22;18313;48.518;9.124;2022-11-20T08:21:24;6.30;99.90
31735;DHT22;18313;48.518;9.124;2022-11-20T08:24:10;6.30;99.90
31735;DHT22;18313;48.518;9.124;2022-11-20T08:26:58;6.40;99.90
31735;DHT22;18313;48.518;9.124;2022-11-20T08:29:44;6.40;99.90
31735;DHT22;18313;48.518;9.124;2022-11-20T08:32:29;6.50;99.90
31735;DHT22;18313;48.518;9.124;2022-11-20T08:35:15;6.60;99.90
31735;DHT22;18313;48.518;9.124;2022-11-20T08:38:01;6.70;99.90
31735;DHT22;18313;48.518;9.124;2022-11-20T08:40:47;6.60;99.90
31735;DHT22;18313;48.518;9.124;2022-11-20T08:43:54;6.80;99.90
31735;DHT22;18313;48.518;9.124;2022-11-20T08:46:40;6.80;99.90
31735;DHT22;18313;48.518;9.124;2022-11-20T08:49:26;6.90;99.90
31735;DHT22;18313;48.518;9.124;2022-11-20T08:52:12;6.90;99.90
31735;DHT22;18313;48.518;9.124;2022-11-20T08:54:57;7.00;99.90
31735;DHT22;18313;48.518;9.124;2022-11-20T08:57:43;7.10;99.90
31735;DHT22;18313;48.518;9.124;2022-11-20T09:00:35;7.20;99.90
31735;DHT22;18313;48.518;9.124;2022-11-20T09:03:20;7.20;99.90
31735;DHT22;18313;48.518;9.124;2022-11-20T09:06:07;7.20;99.90
31735;DHT22;18313;48.518;9.124;2022-11-20T09:08:53;7.30;99.90
31735;DHT22;18313;48.518;9.124;2022-11-20T09:11:38;7.30;99.90
31735;DHT22;18313;48.518;9.124;2022-11-20T09:14:24;7.20;99.90
31735;DHT22;18313;48.518;9.124;2022-11-20T09:17:14;7.20;99.90
31735;DHT22;18313;48.518;9.124;2022-11-20T09:19:59;7.20;99.90
31735;DHT22;18313;48.518;9.124;2022-11-20T09:22:45;7.30;99.90
31735;DHT22;18313;48.518;9.124;2022-11-20T09:25:30;7.30;99.90
31735;DHT22;18313;48.518;9.124;2022-11-20T09:28:16;7.30;99.90
31735;DHT22;18313;48.518;9.124;2022-11-20T09:31:09;7.30;99.90
31735;DHT22;18313;48.518;9.124;2022-11-20T09:33:54;7.40;99.90
31735;DHT22;18313;48.518;9.124;2022-11-20T09:36:40;7.40;99.90
31735;DHT22;18313;48.518;9.124;2022-11-20T09:39:26;7.30;99.90
31735;DHT22;18313;48.518;9.124;2022-11-20T09:42:24;7.40;99.90
31735;DHT22;18313;48.518;9.124;2022-11-20T09:48:31;7.40;99.90
31735;DHT22;18313;48.518;9.124;2022-11-20T09:51:41;7.40;99.90
31735;DHT22;18313;48.518;9.124;2022-11-20T09:54:36;7.40;99.90
31735;DHT22;18313;48.518;9.124;2022-11-20T09:57:36;7.40;99.90
31735;DHT22;18313;48.518;9.124;2022-11-20T10:00:22;7.40;99.90
31735;DHT22;18313;48.518;9.124;2022-11-20T10:03:16;7.40;99.90
31735;DHT22;18313;48.518;9.124;2022-11-20T10:06:07;7.40;99.90
31735;DHT22;18313;48.518;9.124;2022-11-20T10:09:02;7.40;99.90
31735;DHT22;18313;48.518;9.124;2022-11-20T10:12:06;7.50;99.90
31735;DHT22;18313;48.518;9.124;2022-11-20T10:18:10;7.50;99.90
31735;DHT22;18313;48.518;9.124;2022-11-20T10:21:09;7.60;99.90
31735;DHT22;18313;48.518;9.124;2022-11-20T10:27:35;7.50;99.90
31735;DHT22;18313;48.518;9.124;2022-11-20T10:30:25;7.50;99.90
31735;DHT22;18313;48.518;9.124;2022-11-20T10:33:13;7.50;99.90
31735;DHT22;18313;48.518;9.124;2022-11-20T10:42:15;7.70;99.90
31735;DHT22;18313;48.518;9.124;2022-11-20T10:48:27;7.80;99.90
31735;DHT22;18313;48.518;9.124;2022-11-20T10:57:58;8.00;99.90
31735;DHT22;18313;48.518;9.124;2022-11-20T11:00:45;8.00;99.90
31735;DHT22;18313;48.518;9.124;2022-11-20T11:03:31;8.10;99.90
31735;DHT22;18313;48.518;9.124;2022-11-20T11:06:33;8.10;99.90
31735;DHT22;18313;48.518;9.124;2022-11-20T11:09:27;8.20;99.90
31735;DHT22;18313;48.518;9.124;2022-11-20T11:12:15;8.20;99.90
31735;DHT22;18313;48.518;9.124;2022-11-20T11:15:01;8.30;99.90
31735;DHT22;18313;48.518;9.124;2022-11-20T11:17:47;8.40;99.90
31735;DHT22;18313;48.518;9.124;2022-11-20T11:20:33;8.50;99.90
31735;DHT22;18313;48.518;9.124;2022-11-20T11:23:38;8.50;99.90
31735;DHT22;18313;48.518;9.124;2022-11-20T11:26:24;8.60;99.90
31735;DHT22;18313;48.518;9.124;2022-11-20T11:29:17;8.70;99.90
31735;DHT22;18313;48.518;9.124;2022-11-20T11:32:13;8.80;99.90
31735;DHT22;18313;48.518;9.124;2022-11-20T11:35:04;9.00;99.90
31735;DHT22;18313;48.518;9.124;2022-11-20T11:37:50;9.00;99.90
31735;DHT22;18313;48.518;9.124;2022-11-20T11:40:39;9.10;99.90
31735;DHT22;18313;48.518;9.124;2022-11-20T11:43:28;9.30;99.90
31735;DHT22;18313;48.518;9.124;2022-11-20T11:46:35;9.30;99.90
31735;DHT22;18313;48.518;9.124;2022-11-20T11:49:22;9.20;99.90
31735;DHT22;18313;48.518;9.124;2022-11-20T11:52:10;9.10;99.90
31735;DHT22;18313;48.518;9.124;2022-11-20T11:55:01;9.10;99.90
31735;DHT22;18313;48.518;9.124;2022-11-20T12:01:15;9.00;99.90
31735;DHT22;18313;48.518;9.124;2022-11-20T12:07:12;8.90;99.90
31735;DHT22;18313;48.518;9.124;2022-11-20T12:10:48;8.90;99.90
31735;DHT22;18313;48.518;9.124;2022-11-20T12:16:37;8.80;99.90
31735;DHT22;18313;48.518;9.124;2022-11-20T12:19:23;8.80;99.90
31735;DHT22;18313;48.518;9.124;2022-11-20T12:22:40;8.90;99.90
31735;DHT22;18313;48.518;9.124;2022-11-20T12:25:36;8.90;99.90
31735;DHT22;18313;48.518;9.124;2022-11-20T12:34:40;8.80;99.90
31735;DHT22;18313;48.518;9.124;2022-11-20T12:37:37;8.90;99.90
31735;DHT22;18313;48.518;9.124;2022-11-20T12:40:31;9.00;99.90
31735;DHT22;18313;48.518;9.124;2022-11-20T12:43:32;9.10;99.90
31735;DHT22;18313;48.518;9.124;2022-11-20T12:46:47;9.00;99.90
31735;DHT22;18313;48.518;9.124;2022-11-20T13:02:29;9.40;99.90
31735;DHT22;18313;48.518;9.124;2022-11-20T13:05:35;9.20;99.90
31735;DHT22;18313;48.518;9.124;2022-11-20T13:08:30;9.00;99.90
31735;DHT22;18313;48.518;9.124;2022-11-20T13:11:27;8.90;99.90
31735;DHT22;18313;48.518;9.124;2022-11-20T13:15:08;8.90;99.90
31735;DHT22;18313;48.518;9.124;2022-11-20T13:18:02;8.90;99.90
31735;DHT22;18313;48.518;9.124;2022-11-20T13:20:47;8.90;99.90
31735;DHT22;18313;48.518;9.124;2022-11-20T13:23:34;8.80;99.90
31735;DHT22;18313;48.518;9.124;2022-11-20T13:26:22;8.80;99.90
31735;DHT22;18313;48.518;9.124;2022-11-20T13:29:16;8.70;99.90
31735;DHT22;18313;48.518;9.124;2022-11-20T13:32:20;8.70;99.90
31735;DHT22;18313;48.518;9.124;2022-11-20T13:35:08;8.60;99.90
31735;DHT22;18313;48.518;9.124;2022-11-20T13:38:08;8.50;99.90
31735;DHT22;18313;48.518;9.124;2022-11-20T13:40:57;8.40;99.90
31735;DHT22;18313;48.518;9.124;2022-11-20T13:43:44;8.40;99.90
31735;DHT22;18313;48.518;9.124;2022-11-20T13:46:41;8.40;99.90
31735;DHT22;18313;48.518;9.124;2022-11-20T13:49:39;8.50;99.90
31735;DHT22;18313;48.518;9.124;2022-11-20T13:56:11;8.90;99.90
31735;DHT22;18313;48.518;9.124;2022-11-20T14:01:56;9.00;99.90
31735;DHT22;18313;48.518;9.124;2022-11-20T14:04:51;9.00;99.90
31735;DHT22;18313;48.518;9.124;2022-11-20T14:07:41;8.80;99.90
31735;DHT22;18313;48.518;9.124;2022-11-20T14:10:28;8.80;99.90
31735;DHT22;18313;48.518;9.124;2022-11-20T14:13:21;8.70;99.90
31735;DHT22;18313;48.518;9.124;2022-11-20T14:16:06;8.60;99.90
31735;DHT22;18313;48.518;9.124;2022-11-20T14:18:52;8.60;99.90
31735;DHT22;18313;48.518;9.124;2022-11-20T14:21:37;8.60;99.90
31735;DHT22;18313;48.518;9.124;2022-11-20T14:24:24;8.50;99.90
31735;DHT22;18313;48.518;9.124;2022-11-20T14:27:13;8.50;99.90
31735;DHT22;18313;48.518;9.124;2022-11-20T14:30:00;8.40;99.90
31735;DHT22;18313;48.518;9.124;2022-11-20T14:32:47;8.30;99.90
31735;DHT22;18313;48.518;9.124;2022-11-20T14:35:44;8.30;99.90
31735;DHT22;18313;48.518;9.124;2022-11-20T14:38:31;8.30;99.90
31735;DHT22;18313;48.518;9.124;2022-11-20T14:41:22;8.30;99.90
31735;DHT22;18313;48.518;9.124;2022-11-20T14:44:09;8.30;99.90
31735;DHT22;18313;48.518;9.124;2022-11-20T14:46:55;8.20;99.90
31735;DHT22;18313;48.518;9.124;2022-11-20T14:49:41;8.20;99.90
31735;DHT22;18313;48.518;9.124;2022-11-20T14:52:28;8.20;99.90
31735;DHT22;18313;48.518;9.124;2022-11-20T14:55:14;8.10;99.90
31735;DHT22;18313;48.518;9.124;2022-11-20T14:58:24;8.10;99.90
31735;DHT22;18313;48.518;9.124;2022-11-20T15:01:12;8.10;99.90
31735;DHT22;18313;48.518;9.124;2022-11-20T15:04:00;8.10;99.90
31735;DHT22;18313;48.518;9.124;2022-11-20T15:06:54;8.10;99.90
31735;DHT22;18313;48.518;9.124;2022-11-20T15:09:40;7.90;99.90
31735;DHT22;18313;48.518;9.124;2022-11-20T15:12:26;7.90;99.90
31735;DHT22;18313;48.518;9.124;2022-11-20T15:15:15;7.90;99.90
31735;DHT22;18313;48.518;9.124;2022-11-20T15:18:03;7.90;99.90
31735;DHT22;18313;48.518;9.124;2022-11-20T15:20:49;7.90;99.90
31735;DHT22;18313;48.518;9.124;2022-11-20T15:23:35;7.90;99.90
31735;DHT22;18313;48.518;9.124;2022-11-20T15:26:24;7.80;99.90
31735;DHT22;18313;48.518;9.124;2022-11-20T15:29:13;7.70;99.90
31735;DHT22;18313;48.518;9.124;2022-11-20T15:31:59;7.70;99.90
31735;DHT22;18313;48.518;9.124;2022-11-20T15:34:45;7.70;99.90
31735;DHT22;18313;48.518;9.124;2022-11-20T15:37:30;7.50;99.90
31735;DHT22;18313;48.518;9.124;2022-11-20T15:40:16;7.40;99.90
31735;DHT22;18313;48.518;9.124;2022-11-20T15:43:01;7.30;99.90
31735;DHT22;18313;48.518;9.124;2022-11-20T15:48:53;7.20;99.90
31735;DHT22;18313;48.518;9.124;2022-11-20T15:51:42;7.10;99.90
31735;DHT22;18313;48.518;9.124;2022-11-20T15:54:28;7.10;99.90
31735;DHT22;18313;48.518;9.124;2022-11-20T15:57:14;7.00;99.90
31735;DHT22;18313;48.518;9.124;2022-11-20T15:59:59;6.90;99.90
31735;DHT22;18313;48.518;9.124;2022-11-20T16:02:45;6.80;99.90
31735;DHT22;18313;48.518;9.124;2022-11-20T16:05:31;6.70;99.90
31735;DHT22;18313;48.518;9.124;2022-11-20T16:08:16;6.70;99.90
31735;DHT22;18313;48.518;9.124;2022-11-20T16:11:02;6.70;99.90
31735;DHT22;18313;48.518;9.124;2022-11-20T16:13:48;6.70;99.90
31735;DHT22;18313;48.518;9.124;2022-11-20T16:16:52;6.70;99.90
31735;DHT22;18313;48.518;9.124;2022-11-20T16:19:37;6.60;99.90
31735;DHT22;18313;48.518;9.124;2022-11-20T16:22:23;6.60;99.90
31735;DHT22;18313;48.518;9.124;2022-11-20T16:25:08;6.60;99.90
31735;DHT22;18313;48.518;9.124;2022-11-20T16:27:54;6.60;99.90
31735;DHT22;18313;48.518;9.124;2022-11-20T16:30:40;6.60;99.90
31735;DHT22;18313;48.518;9.124;2022-11-20T16:33:25;6.60;99.90
31735;DHT22;18313;48.518;9.124;2022-11-20T16:36:13;6.70;99.90
31735;DHT22;18313;48.518;9.124;2022-11-20T16:39:01;6.70;99.90
31735;DHT22;18313;48.518;9.124;2022-11-20T16:41:47;6.70;99.90
31735;DHT22;18313;48.518;9.124;2022-11-20T16:44:32;6.70;99.90
31735;DHT22;18313;48.518;9.124;2022-11-20T16:47:19;6.80;99.90
31735;DHT22;18313;48.518;9.124;2022-11-20T16:50:05;6.80;99.90
31735;DHT22;18313;48.518;9.124;2022-11-20T16:52:51;6.80;99.90
31735;DHT22;18313;48.518;9.124;2022-11-20T16:55:36;6.70;99.90
31735;DHT22;18313;48.518;9.124;2022-11-20T16:58:22;6.70;99.90
31735;DHT22;18313;48.518;9.124;2022-11-20T17:01:08;6.80;99.90
31735;DHT22;18313;48.518;9.124;2022-11-20T17:03:57;6.70;99.90
31735;DHT22;18313;48.518;9.124;2022-11-20T17:06:43;6.80;99.90
31735;DHT22;18313;48.518;9.124;2022-11-20T17:09:29;6.80;99.90
31735;DHT22;18313;48.518;9.124;2022-11-20T17:12:14;6.80;99.90
31735;DHT22;18313;48.518;9.124;2022-11-20T17:15:00;6.90;99.90
31735;DHT22;18313;48.518;9.124;2022-11-20T17:17:45;6.80;99.90
31735;DHT22;18313;48.518;9.124;2022-11-20T17:20:31;6.90;99.90
31735;DHT22;18313;48.518;9.124;2022-11-20T17:23:16;7.00;99.90
31735;DHT22;18313;48.518;9.124;2022-11-20T17:26:02;6.90;99.90
31735;DHT22;18313;48.518;9.124;2022-11-20T17:28:59;7.00;99.90
31735;DHT22;18313;48.518;9.124;2022-11-20T17:31:45;7.10;99.90
31735;DHT22;18313;48.518;9.124;2022-11-20T17:34:32;7.10;99.90
31735;DHT22;18313;48.518;9.124;2022-11-20T17:37:18;7.10;99.90
31735;DHT22;18313;48.518;9.124;2022-11-20T17:40:04;7.10;99.90
31735;DHT22;18313;48.518;9.124;2022-11-20T17:42:49;7.10;99.90
31735;DHT22;18313;48.518;9.124;2022-11-20T17:45:35;7.10;99.90
31735;DHT22;18313;48.518;9.124;2022-11-20T17:48:21;7.10;99.90
31735;DHT22;18313;48.518;9.124;2022-11-20T17:51:08;7.10;99.90
31735;DHT22;18313;48.518;9.124;2022-11-20T17:54:00;7.10;99.90
31735;DHT22;18313;48.518;9.124;2022-11-20T17:56:45;7.10;99.90
31735;DHT22;18313;48.518;9.124;2022-11-20T17:59:57;7.10;99.90
31735;DHT22;18313;48.518;9.124;2022-11-20T18:02:43;7.10;99.90
31735;DHT22;18313;48.518;9.124;2022-11-20T18:05:28;7.10;99.90
31735;DHT22;18313;48.518;9.124;2022-11-20T18:08:14;7.10;99.90
31735;DHT22;18313;48.518;9.124;2022-11-20T18:10:59;7.10;99.90
31735;DHT22;18313;48.518;9.124;2022-11-20T18:13:49;7.10;99.90
31735;DHT22;18313;48.518;9.124;2022-11-20T18:16:56;7.10;99.90
31735;DHT22;18313;48.518;9.124;2022-11-20T18:19:43;7.10;99.90
31735;DHT22;18313;48.518;9.124;2022-11-20T18:22:49;7.00;99.90
31735;DHT22;18313;48.518;9.124;2022-11-20T18:25:35;7.10;99.90
31735;DHT22;18313;48.518;9.124;2022-11-20T18:28:20;7.00;99.90
31735;DHT22;18313;48.518;9.124;2022-11-20T18:31:09;7.10;99.90
31735;DHT22;18313;48.518;9.124;2022-11-20T18:33:54;7.10;99.90
31735;DHT22;18313;48.518;9.124;2022-11-20T18:36:40;7.00;99.90
31735;DHT22;18313;48.518;9.124;2022-11-20T18:39:27;7.00;99.90
31735;DHT22;18313;48.518;9.124;2022-11-20T18:42:14;7.10;99.90
31735;DHT22;18313;48.518;9.124;2022-11-20T18:45:18;7.00;99.90
31735;DHT22;18313;48.518;9.124;2022-11-20T18:48:04;7.10;99.90
31735;DHT22;18313;48.518;9.124;2022-11-20T18:50:50;7.10;99.90
31735;DHT22;18313;48.518;9.124;2022-11-20T18:53:36;7.10;99.90
31735;DHT22;18313;48.518;9.124;2022-11-20T18:56:26;7.10;99.90
31735;DHT22;18313;48.518;9.124;2022-11-20T18:59:12;7.10;99.90
31735;DHT22;18313;48.518;9.124;2022-11-20T19:01:58;7.00;99.90
31735;DHT22;18313;48.518;9.124;2022-11-20T19:04:43;7.10;99.90
31735;DHT22;18313;48.518;9.124;2022-11-20T19:07:28;7.10;99.90
31735;DHT22;18313;48.518;9.124;2022-11-20T19:10:17;7.10;99.90
31735;DHT22;18313;48.518;9.124;2022-11-20T19:13:04;7.10;99.90